NPV7634 LIPZ-LIPX
Flight info
| Callsign | NPV7634 |
|---|---|
| Flight time | 0h 22m |
| Altitude | 19000 |
| Route | AKADO DCT KOPER/N0377F180 L614 OSTEG |
| Aircraft | B738/M-SDE2E3FGHIRWXY/LB1 |
Departure
| Time | 2026-05-07 11:21 |
|---|---|
| Airport | Venice Marco Polo Airport (LIPZ) |
Arrival
| Time | 2026-05-07 11:43 |
|---|---|
| Airport | Verona Villafranca Valerio Catullo Airport (LIPX) |
| Time | Latitude | Longitude | Altitude | Speed | Heading |
|---|---|---|---|---|---|
| 2026-05-07 10:58 | 45.50748 | 12.34004 | 14 ft | 0 kts | 223° |
| 2026-05-07 11:12 | 45.50749 | 12.34005 | 15 ft | 2 kts | 223° |
| 2026-05-07 11:13 | 45.50768 | 12.34029 | 15 ft | 3 kts | 222° |
| 2026-05-07 11:13 | 45.50777 | 12.34042 | 15 ft | 4 kts | 210° |
| 2026-05-07 11:13 | 45.50794 | 12.34043 | 15 ft | 4 kts | 133° |
| 2026-05-07 11:13 | 45.50809 | 12.34020 | 15 ft | 1 kts | 132° |
| 2026-05-07 11:17 | 45.50774 | 12.34109 | 15 ft | 20 kts | 112° |
| 2026-05-07 11:17 | 45.50670 | 12.34289 | 15 ft | 20 kts | 129° |
| 2026-05-07 11:18 | 45.50604 | 12.34408 | 16 ft | 18 kts | 106° |
| 2026-05-07 11:18 | 45.50603 | 12.34613 | 15 ft | 23 kts | 89° |
| 2026-05-07 11:18 | 45.50612 | 12.34872 | 14 ft | 29 kts | 86° |
| 2026-05-07 11:18 | 45.50707 | 12.35085 | 13 ft | 28 kts | 43° |
| 2026-05-07 11:19 | 45.50862 | 12.35288 | 16 ft | 33 kts | 42° |
| 2026-05-07 11:19 | 45.51042 | 12.35518 | 15 ft | 38 kts | 42° |
| 2026-05-07 11:19 | 45.51251 | 12.35790 | 13 ft | 43 kts | 43° |
| 2026-05-07 11:19 | 45.51479 | 12.36081 | 15 ft | 45 kts | 41° |
| 2026-05-07 11:20 | 45.51700 | 12.36393 | 15 ft | 28 kts | 69° |
| 2026-05-07 11:20 | 45.51620 | 12.36581 | 14 ft | 22 kts | 158° |
| 2026-05-07 11:20 | 45.51426 | 12.36364 | 15 ft | 72 kts | 222° |
| 2026-05-07 11:20 | 45.50850 | 12.35627 | 48 ft | 143 kts | 218° |
| 2026-05-07 11:21 | 45.50063 | 12.34660 | 771 ft | 144 kts | 219° |
| 2026-05-07 11:21 | 45.49381 | 12.33765 | 1808 ft | 134 kts | 224° |
| 2026-05-07 11:21 | 45.48711 | 12.32847 | 2775 ft | 138 kts | 225° |
| 2026-05-07 11:21 | 45.47994 | 12.31917 | 3660 ft | 146 kts | 224° |
| 2026-05-07 11:22 | 45.47158 | 12.30847 | 4119 ft | 182 kts | 223° |
| 2026-05-07 11:22 | 45.46126 | 12.29532 | 4388 ft | 215 kts | 223° |
| 2026-05-07 11:22 | 45.44895 | 12.28088 | 4628 ft | 245 kts | 212° |
| 2026-05-07 11:22 | 45.43175 | 12.27599 | 5261 ft | 263 kts | 174° |
| 2026-05-07 11:23 | 45.41373 | 12.28101 | 6335 ft | 266 kts | 170° |
| 2026-05-07 11:23 | 45.39545 | 12.28621 | 7353 ft | 270 kts | 171° |
| 2026-05-07 11:23 | 45.37679 | 12.29126 | 8458 ft | 275 kts | 173° |
| 2026-05-07 11:23 | 45.35786 | 12.29036 | 9583 ft | 273 kts | 199° |
| 2026-05-07 11:24 | 45.34150 | 12.27722 | 10579 ft | 276 kts | 223° |
| 2026-05-07 11:24 | 45.32980 | 12.25421 | 10900 ft | 304 kts | 244° |
| 2026-05-07 11:24 | 45.32110 | 12.22533 | 11210 ft | 330 kts | 247° |
| 2026-05-07 11:24 | 45.31247 | 12.19441 | 11946 ft | 340 kts | 248° |
| 2026-05-07 11:25 | 45.30382 | 12.16303 | 12927 ft | 343 kts | 248° |
| 2026-05-07 11:25 | 45.29503 | 12.13133 | 13918 ft | 346 kts | 248° |
| 2026-05-07 11:25 | 45.28619 | 12.09982 | 14810 ft | 350 kts | 248° |
| 2026-05-07 11:25 | 45.27708 | 12.06761 | 15753 ft | 353 kts | 248° |
| 2026-05-07 11:26 | 45.26782 | 12.03511 | 16711 ft | 356 kts | 248° |
| 2026-05-07 11:26 | 45.25843 | 12.00229 | 17519 ft | 362 kts | 248° |
| 2026-05-07 11:26 | 45.24893 | 11.96919 | 17928 ft | 364 kts | 248° |
| 2026-05-07 11:26 | 45.23930 | 11.93569 | 17991 ft | 374 kts | 248° |
| 2026-05-07 11:27 | 45.22926 | 11.90078 | 17992 ft | 387 kts | 248° |
| 2026-05-07 11:27 | 45.21901 | 11.86524 | 17997 ft | 389 kts | 248° |
| 2026-05-07 11:27 | 45.20876 | 11.82976 | 17992 ft | 389 kts | 248° |
| 2026-05-07 11:27 | 45.19852 | 11.79434 | 17991 ft | 388 kts | 248° |
| 2026-05-07 11:28 | 45.18827 | 11.75892 | 17994 ft | 388 kts | 248° |
| 2026-05-07 11:28 | 45.17799 | 11.72349 | 17997 ft | 388 kts | 248° |
| 2026-05-07 11:28 | 45.16775 | 11.68819 | 17978 ft | 388 kts | 249° |
| 2026-05-07 11:28 | 45.15997 | 11.65176 | 17992 ft | 387 kts | 258° |
| 2026-05-07 11:29 | 45.15627 | 11.61394 | 17989 ft | 388 kts | 265° |
| 2026-05-07 11:29 | 45.15662 | 11.57571 | 17998 ft | 389 kts | 273° |
| 2026-05-07 11:29 | 45.15870 | 11.53779 | 17986 ft | 382 kts | 274° |
| 2026-05-07 11:29 | 45.16082 | 11.50077 | 17974 ft | 369 kts | 274° |
| 2026-05-07 11:30 | 45.16279 | 11.46532 | 17971 ft | 351 kts | 274° |
| 2026-05-07 11:30 | 45.16457 | 11.43219 | 17961 ft | 331 kts | 273° |
| 2026-05-07 11:30 | 45.16622 | 11.40042 | 17419 ft | 318 kts | 273° |
| 2026-05-07 11:30 | 45.16779 | 11.36931 | 16504 ft | 316 kts | 273° |
| 2026-05-07 11:31 | 45.16933 | 11.33820 | 15567 ft | 317 kts | 273° |
| 2026-05-07 11:31 | 45.17086 | 11.30714 | 14740 ft | 314 kts | 272° |
| 2026-05-07 11:31 | 45.17236 | 11.27651 | 13971 ft | 311 kts | 272° |
| 2026-05-07 11:31 | 45.17385 | 11.24612 | 13151 ft | 308 kts | 272° |
| 2026-05-07 11:32 | 45.17674 | 11.18633 | 11580 ft | 300 kts | 272° |
| 2026-05-07 11:32 | 45.17818 | 11.15690 | 10824 ft | 297 kts | 274° |
| 2026-05-07 11:32 | 45.18313 | 11.12864 | 10030 ft | 299 kts | 293° |
| 2026-05-07 11:33 | 45.19339 | 11.10307 | 9282 ft | 297 kts | 298° |
| 2026-05-07 11:33 | 45.20394 | 11.07838 | 8549 ft | 297 kts | 299° |
| 2026-05-07 11:33 | 45.21450 | 11.05341 | 8328 ft | 287 kts | 298° |
| 2026-05-07 11:33 | 45.22454 | 11.02951 | 8054 ft | 279 kts | 298° |
| 2026-05-07 11:34 | 45.23418 | 11.00649 | 7800 ft | 271 kts | 298° |
| 2026-05-07 11:34 | 45.24388 | 10.98348 | 7541 ft | 265 kts | 298° |
| 2026-05-07 11:34 | 45.25310 | 10.96153 | 7300 ft | 260 kts | 298° |
| 2026-05-07 11:34 | 45.26227 | 10.93966 | 7041 ft | 256 kts | 298° |
| 2026-05-07 11:35 | 45.27081 | 10.91758 | 6798 ft | 255 kts | 288° |
| 2026-05-07 11:35 | 45.27236 | 10.89298 | 6552 ft | 251 kts | 258° |
| 2026-05-07 11:35 | 45.26591 | 10.87027 | 6305 ft | 248 kts | 237° |
| 2026-05-07 11:35 | 45.25482 | 10.85178 | 5983 ft | 246 kts | 227° |
| 2026-05-07 11:36 | 45.24261 | 10.83430 | 5570 ft | 249 kts | 226° |
| 2026-05-07 11:36 | 45.23042 | 10.81721 | 5380 ft | 243 kts | 226° |
| 2026-05-07 11:36 | 45.21866 | 10.80050 | 5238 ft | 235 kts | 226° |
| 2026-05-07 11:36 | 45.20738 | 10.78433 | 5120 ft | 227 kts | 226° |
| 2026-05-07 11:37 | 45.19882 | 10.76655 | 5023 ft | 212 kts | 254° |
| 2026-05-07 11:37 | 45.19856 | 10.74666 | 4931 ft | 198 kts | 281° |
| 2026-05-07 11:37 | 45.20374 | 10.72903 | 4697 ft | 192 kts | 301° |
| 2026-05-07 11:37 | 45.21257 | 10.71535 | 4506 ft | 185 kts | 313° |
| 2026-05-07 11:38 | 45.22160 | 10.70286 | 4285 ft | 178 kts | 312° |
| 2026-05-07 11:38 | 45.23028 | 10.69080 | 4103 ft | 171 kts | 313° |
| 2026-05-07 11:38 | 45.24012 | 10.68202 | 3895 ft | 169 kts | 347° |
| 2026-05-07 11:38 | 45.25151 | 10.68377 | 3742 ft | 166 kts | 20° |
| 2026-05-07 11:39 | 45.26072 | 10.69342 | 3574 ft | 168 kts | 41° |
| 2026-05-07 11:39 | 45.26919 | 10.70454 | 3533 ft | 164 kts | 41° |
| 2026-05-07 11:39 | 45.27746 | 10.71600 | 3324 ft | 166 kts | 44° |
| 2026-05-07 11:39 | 45.28562 | 10.72767 | 3115 ft | 168 kts | 43° |
| 2026-05-07 11:40 | 45.29376 | 10.73955 | 2859 ft | 168 kts | 43° |
| 2026-05-07 11:40 | 45.30192 | 10.75147 | 2648 ft | 170 kts | 44° |
| 2026-05-07 11:40 | 45.31026 | 10.76341 | 2424 ft | 171 kts | 44° |
| 2026-05-07 11:40 | 45.31849 | 10.77607 | 2160 ft | 178 kts | 43° |
| 2026-05-07 11:41 | 45.32681 | 10.78835 | 1998 ft | 173 kts | 42° |
| 2026-05-07 11:41 | 45.33530 | 10.80070 | 1774 ft | 175 kts | 42° |
| 2026-05-07 11:41 | 45.34411 | 10.81309 | 1505 ft | 177 kts | 44° |
| 2026-05-07 11:41 | 45.35218 | 10.82566 | 1270 ft | 173 kts | 46° |
| 2026-05-07 11:42 | 45.36028 | 10.83792 | 1074 ft | 166 kts | 42° |
| 2026-05-07 11:42 | 45.36836 | 10.84877 | 890 ft | 153 kts | 43° |
| 2026-05-07 11:42 | 45.37551 | 10.85946 | 623 ft | 146 kts | 45° |
| 2026-05-07 11:42 | 45.38249 | 10.86939 | 421 ft | 140 kts | 45° |
| 2026-05-07 11:43 | 45.38919 | 10.87910 | 269 ft | 139 kts | 45° |
| 2026-05-07 11:43 | 45.39547 | 10.88822 | 239 ft | 116 kts | 46° |
| 2026-05-07 11:43 | 45.40027 | 10.89522 | 238 ft | 82 kts | 44° |
| 2026-05-07 11:43 | 45.40243 | 10.89836 | 237 ft | 17 kts | 46° |
| 2026-05-07 11:44 | 45.40288 | 10.89985 | 237 ft | 14 kts | 77° |
| 2026-05-07 11:44 | 45.40315 | 10.90143 | 238 ft | 7 kts | 75° |
| 2026-05-07 11:44 | 45.40331 | 10.90223 | 236 ft | 11 kts | 76° |
| 2026-05-07 11:44 | 45.40310 | 10.90308 | 238 ft | 11 kts | 136° |
| 2026-05-07 11:45 | 45.40257 | 10.90396 | 238 ft | 8 kts | 99° |
| 2026-05-07 11:45 | 45.40292 | 10.90467 | 238 ft | 11 kts | 47° |
| 2026-05-07 11:45 | 45.40360 | 10.90568 | 239 ft | 17 kts | 46° |
| 2026-05-07 11:45 | 45.40449 | 10.90696 | 238 ft | 9 kts | 45° |
| 2026-05-07 11:46 | 45.40443 | 10.90728 | 236 ft | 5 kts | 121° |
| 2026-05-07 11:46 | 45.40420 | 10.90762 | 237 ft | 0 kts | 133° |
| 2026-05-07 11:46 | 45.40417 | 10.90767 | 236 ft | 0 kts | 134° |